• Join FlightAware (Why Join?)
  • Login
  • US Flag 
04:26PM EDT


 

Airport Tracker/Info


-or-


 

Live Flight TrackerFlight Track Log ✈ UAL3776 ✈ 17-Apr-2013 ✈ KIAD - KRDU

Flight Track Log - Related Links

Times and Time Zones

All times are in EDT time to prevent confusion due to time zone crossing. See the UAL3776 flight status page for this flight to view local times or setup timezone preferences in your user account.

Time Position Orientation Groundspeed Altitude Reporting Facility
EDT Latitude Longitude Course Direction KTS MPH feet Rate Location/Type
04:50PM 38.9167 -77.5500 201° Southwest 206 237 3,000  Level Potomac TRACON
04:51PM 38.8500 -77.5667 191° South 259 298 5,300 2,580 Climbing Potomac TRACON
04:52PM 38.5262 -77.6491 185° South  Level Estimated
04:53PM 38.4281 -77.5810 151° Southeast  Level FlightAware Approximate
04:53PM 38.7264 -77.5633 179° South 287 330 10,200  Level Washington Center
04:54PM 38.3239 -77.6321 201° Southwest  Level Estimated
04:54PM 38.6283 -77.5661 181° South 315 362 11,400  Level Washington Center
04:55PM 38.2197 -77.6830 201° Southwest  Level Estimated
04:55PM 38.5239 -77.5686 181° South 355 409 13,400  Level Washington Center
04:56PM 38.4197 -77.5714 181° South 376 433 15,600 1,980 Climbing Washington Center
04:57PM 38.3247 -77.6322 207° Southwest 375 432 17,400 1,740 Climbing Washington Center
04:58PM 38.2339 -77.7117 214° Southwest 381 438 19,100 1,560 Climbing Washington Center
04:59PM 38.1406 -77.7908 214° Southwest 398 458 20,600 1,380 Climbing Washington Center
05:00PM 38.0644 -77.8547 213° Southwest 410 472 21,900 1,500 Climbing Washington Center
05:01PM 37.9519 -77.9514 214° Southwest 415 478 23,700 1,020 Climbing Washington Center
05:02PM 37.8522 -78.0325 213° Southwest 420 483 24,000 120 Climbing Washington Center
05:03PM 37.7567 -78.1133 214° Southwest 449 517 24,000  Level Washington Center
05:04PM 37.6547 -78.2017 214° Southwest 454 522 24,000  Level Washington Center
05:05PM 37.5483 -78.2925 214° Southwest 454 522 24,000 -300 Level Washington Center
05:06PM 37.4422 -78.3828 214° Southwest 459 528 23,500 -780 Descending Washington Center
05:07PM 37.3358 -78.4678 212° Southwest 459 528 22,500 -1,200 Descending Washington Center
05:08PM 37.2147 -78.5544 210° Southwest 459 528 21,200 -2,040 Descending Washington Center
05:09PM 37.1147 -78.6339 212° Southwest 454 522 18,500 -1,680 Descending Washington Center
05:10PM 37.0086 -78.7025 207° Southwest 448 516 17,900 -900 Descending Washington Center
05:11PM 36.8969 -78.7475 198° South 433 498 16,700 -1,500 Descending Washington Center
05:12PM 36.7981 -78.7822 196° South 423 487 15,000 -1,740 Descending Washington Center
05:13PM 36.6903 -78.8244 197° South 413 475 13,300 -1,800 Descending Washington Center
05:13PM 36.6544 -78.8386 198° South 403 464 12,800 -1,620 Descending Washington Center
05:14PM 36.5281 -78.8850 196° South 384 442 11,000 -1,320 Descending Washington Center
05:15PM 36.4878 -78.9039 201° Southwest 393 452 10,500 -900 Descending Washington Center
05:15PM 36.4289 -78.9247 196° South 365 420 10,100 -540 Descending Washington Center
05:16PM 36.3894 -78.9206 175° South 380 437 10,000 -240 Descending Washington Center
05:16PM 36.3425 -78.8850 149° Southeast 293 337 9,900 -540 Descending Washington Center
05:17PM 36.3139 -78.8606 145° Southeast 302 348 9,500 -1,020 Descending Washington Center
05:17PM 36.2772 -78.8306 147° Southeast 274 315 8,900 -1,020 Descending Washington Center
05:18PM 36.2569 -78.8067 136° Southeast 283 326 8,500 -900 Descending Washington Center
05:18PM 36.2158 -78.7767 150° Southeast 265 305 8,000 -720 Descending Washington Center
05:19PM 36.2019 -78.7581 133° Southeast 265 305 7,800 -1,500 Descending Washington Center
05:19PM 36.1650 -78.7283 147° Southeast 233 268 6,500 -2,100 Descending Washington Center
05:20PM 36.1386 -78.7042 144° Southeast 249 287 5,700 -1,620 Descending Washington Center
05:20PM 36.1078 -78.6850 153° Southeast 233 268 4,900 -1,500 Descending Washington Center
05:21PM 36.0892 -78.6739 154° Southeast 235 270 4,200 -1,680 Descending Washington Center
05:21PM 36.0544 -78.6494 150° Southeast 215 247 3,200 -1,200 Descending Washington Center
05:22PM 36.0378 -78.6539 192° South 214 246 3,000 -240 Descending Washington Center
05:22PM 36.0039 -78.6628 192° South 203 234 3,000  Level Washington Center